Time;durP1;ratioP1;P1;durP2;ratioP2;P2;SDS_P1;SDS_P2;PMS_P1;PMS_P2;Temp;Humidity;BMP_temperature;BMP_pressure;BME280_temperature;BME280_humidity;BME280_pressure;Samples;Min_cycle;Max_cycle;Signal;HPM_P1;HPM_P2
2021/06/28 00:00:44;;;;;;;1.60;1.50;;;25.40;99.90;;;;;;4865360;29;20033;-86
2021/06/28 00:03:10;;;;;;;1.80;1.70;;;25.40;99.90;;;;;;4880148;29;20033;-86
2021/06/28 00:05:37;;;;;;;1.98;1.77;;;25.40;99.90;;;;;;4880618;29;20114;-87
2021/06/28 00:08:03;;;;;;;1.63;1.52;;;25.50;99.90;;;;;;4881910;29;20032;-88
2021/06/28 00:10:30;;;;;;;2.05;1.85;;;25.40;99.90;;;;;;4865094;29;20063;-86
2021/06/28 00:12:58;;;;;;;2.33;2.13;;;25.40;99.90;;;;;;4880185;29;20044;-87
2021/06/28 00:15:30;;;;;;;2.17;1.98;;;25.40;99.90;;;;;;4864485;29;20079;-87
2021/06/28 00:17:57;;;;;;;2.22;2.03;;;25.40;99.90;;;;;;4880764;29;20081;-87
2021/06/28 00:20:23;;;;;;;2.90;2.35;;;25.40;99.90;;;;;;4864688;29;20045;-87
2021/06/28 00:22:49;;;;;;;2.67;2.47;;;25.40;99.90;;;;;;4881398;29;20036;-87
2021/06/28 00:25:20;;;;;;;2.50;2.30;;;25.40;99.90;;;;;;4864706;29;20103;-87
2021/06/28 00:27:47;;;;;;;2.63;2.42;;;25.40;99.90;;;;;;4864658;29;20052;-87
2021/06/28 00:30:16;;;;;;;2.95;2.72;;;25.40;99.90;;;;;;4864502;29;20037;-86
2021/06/28 00:32:42;;;;;;;3.42;3.00;;;25.40;99.90;;;;;;4881661;29;20028;-86
2021/06/28 00:35:09;;;;;;;3.33;2.78;;;25.40;99.90;;;;;;4864405;29;20033;-86
2021/06/28 00:37:35;;;;;;;3.05;2.75;;;25.40;99.90;;;;;;4864419;29;20400;-86
2021/06/28 00:40:03;;;;;;;3.33;3.00;;;25.40;99.90;;;;;;4864493;29;20040;-86
2021/06/28 00:42:29;;;;;;;3.50;3.20;;;25.40;99.90;;;;;;4879272;29;20071;-86
2021/06/28 00:44:54;;;;;;;3.58;3.28;;;25.40;99.90;;;;;;4879992;29;20068;-86
2021/06/28 00:47:21;;;;;;;3.95;3.55;;;25.40;99.90;;;;;;4881117;29;20053;-86
2021/06/28 00:49:46;;;;;;;4.28;3.75;;;25.40;99.90;;;;;;4880918;29;20033;-86
2021/06/28 00:52:13;;;;;;;4.63;4.07;;;25.40;99.90;;;;;;4879614;29;20553;-87
2021/06/28 00:54:40;;;;;;;4.03;3.60;;;25.40;99.90;;;;;;4880048;29;20022;-86
2021/06/28 00:57:05;;;;;;;4.28;3.80;;;25.40;99.90;;;;;;4879571;29;20052;-86
2021/06/28 00:59:32;;;;;;;4.45;4.05;;;25.40;99.90;;;;;;4863894;29;20480;-86
2021/06/28 01:02:01;;;;;;;4.72;4.22;;;25.40;99.90;;;;;;4864003;29;20044;-85
2021/06/28 01:04:27;;;;;;;4.38;3.97;;;25.40;99.90;;;;;;4879197;29;20132;-85
2021/06/28 01:06:54;;;;;;;4.68;4.18;;;25.40;99.90;;;;;;4864010;29;20511;-86
2021/06/28 01:09:19;;;;;;;5.13;4.57;;;25.40;99.90;;;;;;4863695;29;20041;-85
2021/06/28 01:11:45;;;;;;;5.00;4.50;;;25.40;99.90;;;;;;4863837;29;20444;-86
2021/06/28 01:14:11;;;;;;;5.25;4.75;;;25.40;99.90;;;;;;4863398;29;20048;-87
2021/06/28 01:16:36;;;;;;;6.00;5.45;;;25.40;99.90;;;;;;4863824;29;20029;-85
2021/06/28 01:19:04;;;;;;;5.47;4.90;;;25.40;99.90;;;;;;4863882;29;20132;-87
2021/06/28 01:21:33;;;;;;;6.55;5.85;;;25.40;99.90;;;;;;4878987;29;20037;-86
2021/06/28 01:23:59;;;;;;;5.75;5.15;;;25.40;99.90;;;;;;4879081;29;20033;-86
2021/06/28 01:26:25;;;;;;;6.22;5.60;;;25.40;99.90;;;;;;4878717;29;20032;-85
2021/06/28 01:28:51;;;;;;;6.15;5.55;;;25.30;99.90;;;;;;4864021;29;20128;-86
2021/06/28 01:31:17;;;;;;;6.90;6.15;;;25.40;99.90;;;;;;4879995;29;20120;-86
2021/06/28 01:33:42;;;;;;;7.00;6.25;;;25.30;99.90;;;;;;4863512;29;20448;-86
2021/06/28 01:36:08;;;;;;;6.97;6.28;;;25.30;99.90;;;;;;4863493;29;20039;-85
2021/06/28 01:38:34;;;;;;;7.38;6.60;;;25.30;99.90;;;;;;4878441;29;20187;-86
2021/06/28 01:41:00;;;;;;;7.45;6.35;;;25.30;99.90;;;;;;4878029;29;20380;-85
2021/06/28 01:43:26;;;;;;;8.35;7.45;;;25.30;99.90;;;;;;4878545;29;20069;-85
2021/06/28 01:45:53;;;;;;;8.50;7.60;;;25.30;99.90;;;;;;4879587;29;20121;-85
2021/06/28 01:48:19;;;;;;;8.27;7.47;;;25.30;99.90;;;;;;4862963;29;20496;-85
2021/06/28 01:50:46;;;;;;;8.57;7.68;;;25.30;99.90;;;;;;4878672;29;20063;-86
2021/06/28 01:53:12;;;;;;;11.02;8.63;;;25.30;99.90;;;;;;4878879;29;20488;-86
2021/06/28 01:55:38;;;;;;;9.18;8.23;;;25.30;99.90;;;;;;4878418;29;20496;-86
2021/06/28 01:58:06;;;;;;;10.45;8.82;;;25.30;99.90;;;;;;4878897;29;20033;-85
2021/06/28 02:00:47;;;;;;;10.88;9.77;;;25.40;99.90;;;;;;4878464;29;20448;-85
2021/06/28 02:03:19;;;;;;;10.15;8.75;;;25.30;99.90;;;;;;4878883;29;20037;-86
2021/06/28 02:05:58;;;;;;;11.27;9.27;;;25.30;99.90;;;;;;4882353;29;20052;-85
2021/06/28 02:08:27;;;;;;;10.43;9.32;;;25.30;99.90;;;;;;4881552;29;20048;-86
2021/06/28 02:10:59;;;;;;;11.80;10.05;;;25.30;99.90;;;;;;4880890;29;20142;-86
2021/06/28 02:13:30;;;;;;;12.90;11.10;;;25.30;99.90;;;;;;4879515;29;20025;-86
2021/06/28 02:15:56;;;;;;;11.88;10.13;;;25.30;99.90;;;;;;4878824;29;20033;-85
2021/06/28 02:18:24;;;;;;;13.82;11.77;;;25.30;99.90;;;;;;4879646;29;20067;-86
2021/06/28 02:20:58;;;;;;;13.27;10.90;;;25.30;99.90;;;;;;4863070;29;20033;-86
2021/06/28 02:23:32;;;;;;;14.75;11.77;;;25.30;99.90;;;;;;4878150;29;20041;-85
2021/06/28 02:26:03;;;;;;;15.52;12.05;;;25.30;99.90;;;;;;4878638;29;20033;-86
2021/06/28 02:28:31;;;;;;;13.30;11.90;;;25.30;99.90;;;;;;4878586;29;20109;-85
2021/06/28 02:30:58;;;;;;;13.57;12.07;;;25.30;99.90;;;;;;4878865;29;20101;-84
2021/06/28 02:33:25;;;;;;;14.13;12.20;;;25.30;99.90;;;;;;4882690;29;20115;-85
2021/06/28 02:35:53;;;;;;;13.77;12.32;;;25.30;99.90;;;;;;4868742;29;20037;-86
2021/06/28 02:38:19;;;;;;;12.85;11.55;;;25.30;99.90;;;;;;4885069;29;20039;-87
2021/06/28 02:40:44;;;;;;;14.15;12.10;;;25.30;99.90;;;;;;4889382;29;20108;-85
2021/06/28 02:43:10;;;;;;;14.23;12.50;;;25.30;99.90;;;;;;4878499;29;20037;-86
2021/06/28 02:45:36;;;;;;;13.90;12.07;;;25.30;99.90;;;;;;4878208;29;20450;-86
2021/06/28 02:48:03;;;;;;;14.68;12.57;;;25.30;99.90;;;;;;4878226;29;20049;-86
2021/06/28 02:50:29;;;;;;;14.25;12.45;;;25.30;99.90;;;;;;4878281;29;20048;-87
2021/06/28 02:52:55;;;;;;;14.40;12.75;;;25.30;99.90;;;;;;4883328;29;20033;-86
2021/06/28 02:55:20;;;;;;;14.15;12.20;;;25.30;99.90;;;;;;4866278;29;20029;-87
2021/06/28 02:57:46;;;;;;;15.35;13.23;;;25.30;99.90;;;;;;4881689;29;20033;-86
2021/06/28 03:00:15;;;;;;;15.35;12.60;;;25.30;99.90;;;;;;4881474;29;20029;-86
2021/06/28 03:02:41;;;;;;;15.55;12.88;;;25.30;99.90;;;;;;4883200;29;20048;-86
2021/06/28 03:05:09;;;;;;;16.95;14.07;;;25.30;99.90;;;;;;4866252;29;20033;-86
2021/06/28 03:07:35;;;;;;;15.13;13.52;;;25.30;99.90;;;;;;4865849;29;20037;-86
2021/06/28 03:10:06;;;;;;;15.73;13.68;;;25.30;99.90;;;;;;4881814;29;20139;-86
2021/06/28 03:12:31;;;;;;;15.20;13.60;;;25.30;99.90;;;;;;4866668;29;20036;-86
2021/06/28 03:14:57;;;;;;;15.75;13.95;;;25.30;99.90;;;;;;4881099;29;20488;-86
2021/06/28 03:17:23;;;;;;;15.43;13.55;;;25.30;99.90;;;;;;4881083;29;20380;-88
2021/06/28 03:19:49;;;;;;;15.50;13.80;;;25.30;99.90;;;;;;4881421;29;20037;-86
2021/06/28 03:22:16;;;;;;;15.20;13.27;;;25.30;99.90;;;;;;4881144;29;20069;-86
2021/06/28 03:24:43;;;;;;;15.73;14.02;;;25.30;99.90;;;;;;4881003;29;20033;-86
2021/06/28 03:27:08;;;;;;;15.73;13.80;;;25.30;99.90;;;;;;4865580;29;20033;-86
2021/06/28 03:29:34;;;;;;;16.65;14.40;;;25.30;99.90;;;;;;4865088;29;20108;-86
2021/06/28 03:32:00;;;;;;;16.33;14.43;;;25.30;99.90;;;;;;4865781;29;20037;-86
2021/06/28 03:34:26;;;;;;;16.60;14.00;;;25.30;99.90;;;;;;4881028;29;20472;-87
2021/06/28 03:36:51;;;;;;;16.75;14.75;;;25.30;99.90;;;;;;4880859;29;20037;-86
2021/06/28 03:39:17;;;;;;;16.45;14.75;;;25.30;99.90;;;;;;4880785;29;20041;-86
2021/06/28 03:41:42;;;;;;;16.50;14.45;;;25.30;99.90;;;;;;4865046;29;20045;-86
2021/06/28 03:44:08;;;;;;;17.23;14.82;;;25.30;99.90;;;;;;4865689;29;20080;-86
2021/06/28 03:46:34;;;;;;;16.67;14.38;;;25.30;99.90;;;;;;4865285;29;20041;-86
2021/06/28 03:49:00;;;;;;;15.90;14.13;;;25.30;99.90;;;;;;4865221;29;20056;-86
2021/06/28 03:51:25;;;;;;;18.05;16.08;;;25.30;99.90;;;;;;4864996;29;20037;-87
2021/06/28 03:53:52;;;;;;;18.40;15.30;;;25.30;99.90;;;;;;4880461;29;20066;-86
2021/06/28 03:56:18;;;;;;;15.85;13.93;;;25.30;99.90;;;;;;4880611;29;20033;-86
2021/06/28 03:58:45;;;;;;;16.67;14.68;;;25.20;99.90;;;;;;4880094;29;20043;-86
2021/06/28 04:01:11;;;;;;;17.20;15.05;;;25.30;99.90;;;;;;4880727;29;20392;-86
2021/06/28 04:03:38;;;;;;;16.73;14.93;;;25.30;99.90;;;;;;4879521;29;20033;-85
2021/06/28 04:06:06;;;;;;;18.17;15.18;;;25.30;99.90;;;;;;4865235;29;20447;-86
2021/06/28 04:08:36;;;;;;;18.20;15.25;;;25.30;99.90;;;;;;4880203;29;20033;-85
2021/06/28 04:11:04;;;;;;;16.95;14.70;;;25.30;99.90;;;;;;4880674;29;20033;-86
2021/06/28 04:13:30;;;;;;;17.58;14.90;;;25.30;99.90;;;;;;4881195;29;20089;-87
2021/06/28 04:15:55;;;;;;;17.70;15.23;;;25.30;99.90;;;;;;4880247;29;20033;-86
2021/06/28 04:18:21;;;;;;;17.27;14.20;;;25.20;99.90;;;;;;4880450;29;20029;-86
2021/06/28 04:20:47;;;;;;;16.63;14.73;;;25.20;99.90;;;;;;4864429;29;20041;-86
2021/06/28 04:23:13;;;;;;;16.83;14.55;;;25.30;99.90;;;;;;4880341;29;20033;-87
2021/06/28 04:25:39;;;;;;;17.58;15.23;;;25.30;99.90;;;;;;4879611;29;20077;-87
2021/06/28 04:28:05;;;;;;;16.60;14.70;;;25.30;99.90;;;;;;4864401;29;20135;-86
2021/06/28 04:30:31;;;;;;;16.83;14.70;;;25.30;99.90;;;;;;4880964;29;20040;-88
2021/06/28 04:32:57;;;;;;;15.93;14.23;;;25.30;99.90;;;;;;4880432;29;20033;-87
2021/06/28 04:35:25;;;;;;;15.77;14.07;;;25.30;99.90;;;;;;4880432;29;20399;-87
2021/06/28 04:37:52;;;;;;;16.45;14.10;;;25.30;99.90;;;;;;4864352;29;20037;-86
2021/06/28 04:40:22;;;;;;;15.77;14.10;;;25.30;99.90;;;;;;4864792;29;20037;-86
2021/06/28 04:42:49;;;;;;;15.35;13.70;;;25.30;99.90;;;;;;4881128;29;20089;-86
2021/06/28 04:45:15;;;;;;;16.30;14.02;;;25.30;99.90;;;;;;4880436;29;20036;-86
2021/06/28 04:47:41;;;;;;;16.15;14.45;;;25.30;99.90;;;;;;4879558;29;20404;-87
2021/06/28 04:50:08;;;;;;;14.60;12.98;;;25.30;99.90;;;;;;4881141;29;20033;-86
2021/06/28 04:52:35;;;;;;;15.35;13.75;;;25.30;99.90;;;;;;4863918;29;20444;-87
2021/06/28 04:55:01;;;;;;;14.70;13.18;;;25.30;99.90;;;;;;4880673;29;20475;-86
2021/06/28 04:57:27;;;;;;;14.25;12.55;;;25.30;99.90;;;;;;4864350;29;20128;-86
2021/06/28 04:59:53;;;;;;;14.90;13.15;;;25.30;99.90;;;;;;4880489;29;20051;-86
2021/06/28 05:02:18;;;;;;;15.30;13.15;;;25.30;99.90;;;;;;4864124;29;20132;-86
2021/06/28 05:04:47;;;;;;;13.00;11.63;;;25.30;99.90;;;;;;4879379;29;20108;-86
2021/06/28 05:07:12;;;;;;;13.70;12.30;;;25.30;99.90;;;;;;4879625;29;20420;-86
2021/06/28 05:09:38;;;;;;;14.00;11.93;;;25.30;99.90;;;;;;4879182;29;20036;-87
2021/06/28 05:12:04;;;;;;;13.50;11.70;;;25.30;99.90;;;;;;4879623;29;20547;-86
2021/06/28 05:14:29;;;;;;;14.45;12.35;;;25.40;99.90;;;;;;4864299;29;20492;-86
2021/06/28 05:16:55;;;;;;;12.15;10.85;;;25.40;99.90;;;;;;4879576;29;20064;-86
2021/06/28 05:19:21;;;;;;;12.63;11.15;;;25.40;99.90;;;;;;4863747;29;20033;-86
2021/06/28 05:21:46;;;;;;;12.35;11.05;;;25.40;99.90;;;;;;4863737;29;20041;-87
2021/06/28 05:24:12;;;;;;;12.88;10.90;;;25.40;99.90;;;;;;4879231;29;20044;-86
2021/06/28 05:26:38;;;;;;;11.57;10.38;;;25.40;99.90;;;;;;4880294;29;20033;-87
2021/06/28 05:29:04;;;;;;;11.85;10.60;;;25.40;99.90;;;;;;4863731;29;20043;-86
2021/06/28 05:31:29;;;;;;;11.38;10.27;;;25.40;99.90;;;;;;4880237;29;20384;-87
2021/06/28 05:33:55;;;;;;;11.30;10.07;;;25.40;99.90;;;;;;4879136;29;20064;-87
2021/06/28 05:36:21;;;;;;;11.20;10.00;;;25.40;99.90;;;;;;4863958;29;20416;-86
2021/06/28 05:38:47;;;;;;;12.00;10.23;;;25.40;99.90;;;;;;4879645;29;20047;-87
2021/06/28 05:41:15;;;;;;;10.93;9.82;;;25.50;99.90;;;;;;4878923;29;20045;-87
2021/06/28 05:43:41;;;;;;;12.00;9.93;;;25.50;99.90;;;;;;4897510;29;20112;-87
2021/06/28 05:46:07;;;;;;;9.68;8.52;;;25.50;99.90;;;;;;4874982;29;20041;-86
2021/06/28 05:48:32;;;;;;;10.48;9.35;;;25.50;99.90;;;;;;4879669;29;20507;-86
2021/06/28 05:50:58;;;;;;;10.13;9.13;;;25.50;99.90;;;;;;4863598;29;20101;-86
2021/06/28 05:53:24;;;;;;;9.98;8.65;;;25.50;99.90;;;;;;4880511;29;20117;-86
2021/06/28 05:55:50;;;;;;;10.68;8.82;;;25.50;99.90;;;;;;4863331;29;20036;-86
2021/06/28 05:58:17;;;;;;;9.95;8.75;;;25.50;99.90;;;;;;4863625;29;20040;-86
2021/06/28 06:00:43;;;;;;;10.45;9.35;;;25.50;99.90;;;;;;4863428;29;20037;-86
2021/06/28 06:03:09;;;;;;;9.55;8.55;;;25.50;99.90;;;;;;4863096;29;20132;-86
2021/06/28 06:05:35;;;;;;;9.20;8.25;;;25.50;99.90;;;;;;4863641;29;20487;-86
2021/06/28 06:08:01;;;;;;;9.80;8.80;;;25.50;99.90;;;;;;4863426;29;20127;-86
2021/06/28 06:10:27;;;;;;;9.55;8.32;;;25.60;99.90;;;;;;4863595;29;20136;-86
2021/06/28 06:12:53;;;;;;;9.70;8.45;;;25.60;99.90;;;;;;4862807;29;20447;-87
2021/06/28 06:15:18;;;;;;;9.63;8.63;;;25.60;99.90;;;;;;4878885;29;20029;-86
2021/06/28 06:17:45;;;;;;;9.60;8.40;;;25.60;99.90;;;;;;4862708;29;20105;-86
2021/06/28 06:20:11;;;;;;;9.80;8.50;;;25.60;99.90;;;;;;4878057;29;20037;-85
2021/06/28 06:22:37;;;;;;;8.75;7.85;;;25.60;99.90;;;;;;4878217;29;20064;-86
2021/06/28 06:25:05;;;;;;;9.75;8.75;;;25.60;99.90;;;;;;4862729;29;20511;-85
2021/06/28 06:27:31;;;;;;;9.32;8.40;;;25.60;99.90;;;;;;4883070;29;20056;-86
2021/06/28 06:29:57;;;;;;;10.43;9.18;;;25.70;99.90;;;;;;4885334;29;20048;-86
2021/06/28 06:32:23;;;;;;;10.25;8.77;;;25.70;99.90;;;;;;4868969;29;20033;-86
2021/06/28 06:34:49;;;;;;;10.38;8.73;;;25.70;99.90;;;;;;4883928;29;20484;-86
2021/06/28 06:37:16;;;;;;;10.00;8.98;;;25.70;99.90;;;;;;4868429;29;20058;-86
2021/06/28 06:39:41;;;;;;;9.65;8.63;;;25.70;99.90;;;;;;4868555;29;20040;-86
2021/06/28 06:42:07;;;;;;;9.10;8.02;;;25.70;99.90;;;;;;4884177;29;20047;-86
2021/06/28 06:44:33;;;;;;;9.27;8.25;;;25.80;99.90;;;;;;4869052;29;20037;-86
2021/06/28 06:46:59;;;;;;;10.40;8.93;;;25.80;99.90;;;;;;4883729;29;20029;-86
2021/06/28 06:49:25;;;;;;;9.10;8.20;;;25.80;99.90;;;;;;4884241;29;20045;-85
2021/06/28 06:51:52;;;;;;;9.23;7.95;;;25.80;99.90;;;;;;4868383;29;20124;-84
2021/06/28 06:54:18;;;;;;;9.65;8.57;;;25.80;99.90;;;;;;4884345;29;20057;-84
2021/06/28 06:56:44;;;;;;;9.48;8.38;;;25.80;99.90;;;;;;4868986;29;20476;-85
2021/06/28 06:59:09;;;;;;;9.40;8.15;;;25.80;99.90;;;;;;4883907;29;20029;-86
2021/06/28 07:01:36;;;;;;;9.23;8.18;;;25.80;99.90;;;;;;4869118;29;20072;-86
2021/06/28 07:04:03;;;;;;;8.63;7.72;;;25.80;99.90;;;;;;4885425;29;20033;-86
2021/06/28 07:06:29;;;;;;;9.65;8.38;;;25.80;99.90;;;;;;4868727;29;20033;-86
2021/06/28 07:08:55;;;;;;;10.02;8.23;;;25.80;99.90;;;;;;4884088;29;20025;-86
2021/06/28 07:11:20;;;;;;;8.15;7.35;;;25.80;99.90;;;;;;4868669;29;20387;-86
2021/06/28 07:13:52;;;;;;;8.30;7.38;;;25.80;99.90;;;;;;4885249;29;20029;-86
2021/06/28 07:16:19;;;;;;;8.02;7.20;;;25.80;99.90;;;;;;4884086;29;20059;-86
2021/06/28 07:18:46;;;;;;;7.75;6.95;;;25.80;99.90;;;;;;4868927;29;20128;-86
2021/06/28 07:21:11;;;;;;;8.20;7.40;;;25.80;99.90;;;;;;4883579;29;20045;-86
2021/06/28 07:23:38;;;;;;;7.78;6.97;;;25.80;99.90;;;;;;4885475;29;20396;-86
2021/06/28 07:26:05;;;;;;;7.82;7.03;;;25.80;99.90;;;;;;4883830;29;20033;-86
2021/06/28 07:28:32;;;;;;;7.88;7.07;;;25.90;99.90;;;;;;4884054;29;20037;-86
2021/06/28 07:30:59;;;;;;;7.50;6.80;;;25.80;99.90;;;;;;4868468;29;20037;-86
2021/06/28 07:33:27;;;;;;;7.32;6.63;;;25.90;99.90;;;;;;4884825;29;20101;-85
2021/06/28 07:35:54;;;;;;;7.82;7.03;;;25.90;99.90;;;;;;4883751;29;20029;-86
2021/06/28 07:38:20;;;;;;;8.10;7.30;;;25.80;99.90;;;;;;4880357;29;20036;-85
2021/06/28 07:40:46;;;;;;;6.95;6.22;;;25.90;99.90;;;;;;4880733;29;20041;-85
2021/06/28 07:43:11;;;;;;;7.07;6.32;;;25.80;99.90;;;;;;4880647;29;20396;-86
2021/06/28 07:45:37;;;;;;;6.82;6.10;;;25.90;99.90;;;;;;4865383;29;20037;-85
2021/06/28 07:48:03;;;;;;;7.30;6.35;;;25.90;99.90;;;;;;4879995;29;20057;-85
2021/06/28 07:50:29;;;;;;;6.28;5.68;;;25.90;99.90;;;;;;4865374;29;20037;-85
2021/06/28 07:52:55;;;;;;;7.15;6.32;;;25.90;99.90;;;;;;4865405;29;20033;-87
2021/06/28 07:55:21;;;;;;;6.72;6.00;;;25.90;99.90;;;;;;4864753;29;20503;-85
2021/06/28 07:57:47;;;;;;;6.07;5.47;;;25.90;99.90;;;;;;4881772;29;20069;-86
2021/06/28 08:00:16;;;;;;;6.35;5.55;;;26.00;99.90;;;;;;4864891;29;20045;-86
2021/06/28 08:02:43;;;;;;;6.60;6.00;;;26.00;99.90;;;;;;4880512;29;20032;-86
2021/06/28 08:05:09;;;;;;;6.47;5.85;;;26.00;99.90;;;;;;4880635;29;20029;-87
2021/06/28 08:07:35;;;;;;;5.85;5.25;;;26.00;99.90;;;;;;4865704;29;20083;-88
2021/06/28 08:10:04;;;;;;;5.70;5.20;;;26.10;99.90;;;;;;4880618;29;20065;-88
2021/06/28 08:12:29;;;;;;;5.25;4.75;;;26.10;99.90;;;;;;4880866;29;20029;-89
2021/06/28 08:14:55;;;;;;;5.43;4.93;;;26.10;99.90;;;;;;4880699;29;20036;-86
2021/06/28 08:17:21;;;;;;;5.55;5.00;;;26.10;99.90;;;;;;4864171;29;20044;-86
2021/06/28 08:19:47;;;;;;;5.35;4.82;;;26.10;99.90;;;;;;4864772;29;20487;-85
2021/06/28 08:22:14;;;;;;;5.30;4.80;;;26.10;99.90;;;;;;4864371;29;20029;-86
2021/06/28 08:24:40;;;;;;;4.70;4.30;;;26.10;99.90;;;;;;4881846;29;20494;-86
2021/06/28 08:27:06;;;;;;;4.82;4.30;;;26.10;99.90;;;;;;4880912;29;20033;-86
2021/06/28 08:29:31;;;;;;;4.32;3.92;;;26.20;99.90;;;;;;4864467;29;20492;-86
2021/06/28 08:31:57;;;;;;;5.25;4.47;;;26.20;99.90;;;;;;4863980;29;20041;-86
2021/06/28 08:34:23;;;;;;;5.30;4.25;;;26.20;99.90;;;;;;4879973;29;20064;-86
2021/06/28 08:36:49;;;;;;;5.07;4.57;;;26.20;99.90;;;;;;4879815;29;20033;-86
2021/06/28 08:39:16;;;;;;;4.38;3.97;;;26.20;99.90;;;;;;4864340;29;20033;-86
2021/06/28 08:41:46;;;;;;;4.35;3.95;;;26.20;99.90;;;;;;4864367;29;20472;-86
2021/06/28 08:44:13;;;;;;;3.90;3.60;;;26.20;99.90;;;;;;4881379;29;20035;-86
2021/06/28 08:46:39;;;;;;;4.13;3.72;;;26.20;99.90;;;;;;4880393;29;20033;-86
2021/06/28 08:49:05;;;;;;;3.78;3.42;;;26.20;99.90;;;;;;4867457;29;20059;-85
2021/06/28 08:51:31;;;;;;;3.90;3.50;;;26.20;99.90;;;;;;4867806;29;20041;-85
2021/06/28 08:53:57;;;;;;;3.63;3.33;;;26.30;99.90;;;;;;4881057;29;20044;-87
2021/06/28 08:56:23;;;;;;;4.00;3.60;;;26.30;99.90;;;;;;4879919;29;20468;-86
2021/06/28 08:58:50;;;;;;;3.67;3.33;;;26.30;99.90;;;;;;4880393;29;20036;-86
2021/06/28 09:01:15;;;;;;;3.90;3.60;;;26.30;99.90;;;;;;4879236;29;20143;-86
2021/06/28 09:03:41;;;;;;;3.20;2.90;;;26.30;99.90;;;;;;4879599;29;20035;-86
2021/06/28 09:06:07;;;;;;;3.70;3.40;;;26.30;99.90;;;;;;4863723;29;20128;-88
2021/06/28 09:08:59;;;;;;;3.80;3.30;;;26.30;99.90;;;;;;4879448;29;20033;-86
2021/06/28 09:11:26;;;;;;;3.20;2.90;;;26.30;99.90;;;;;;4880729;29;20075;-86
2021/06/28 09:13:54;;;;;;;3.20;2.95;;;26.30;99.90;;;;;;4880846;29;20141;-86
2021/06/28 09:16:29;;;;;;;3.83;3.42;;;26.30;99.90;;;;;;4882322;29;20322;-86
2021/06/28 09:19:05;;;;;;;4.47;3.20;;;26.30;99.90;;;;;;4882895;29;20395;-86
2021/06/28 09:21:37;;;;;;;3.30;3.00;;;26.30;99.90;;;;;;4880918;29;20033;-86
2021/06/28 09:24:06;;;;;;;3.20;2.90;;;26.30;99.90;;;;;;4878562;29;20029;-88
2021/06/28 09:26:37;;;;;;;3.35;3.05;;;26.40;99.90;;;;;;4879230;29;20035;-85
2021/06/28 09:29:08;;;;;;;3.10;2.80;;;26.30;99.90;;;;;;4863358;29;20097;-86
2021/06/28 09:31:43;;;;;;;2.72;2.53;;;26.40;99.90;;;;;;4879744;29;20083;-85
2021/06/28 09:34:21;;;;;;;3.00;2.70;;;26.40;99.90;;;;;;4879806;29;20037;-86
2021/06/28 09:36:54;;;;;;;2.50;2.30;;;26.40;99.90;;;;;;4879030;29;20438;-86
2021/06/28 09:39:40;;;;;;;3.20;2.78;;;26.40;99.90;;;;;;4878894;29;20448;-86
2021/06/28 09:42:17;;;;;;;2.60;2.40;;;26.40;99.90;;;;;;4879944;29;20033;-86
2021/06/28 09:45:16;;;;;;;2.65;2.45;;;26.40;99.90;;;;;;4879858;29;20480;-86
2021/06/28 09:47:42;;;;;;;3.03;2.70;;;26.40;99.90;;;;;;4879894;29;20121;-86
2021/06/28 09:50:12;;;;;;;2.65;2.45;;;26.40;99.90;;;;;;4878551;29;20070;-86
2021/06/28 09:52:46;;;;;;;2.72;2.53;;;26.50;99.90;;;;;;4879777;29;20025;-86
2021/06/28 09:55:19;;;;;;;2.53;2.33;;;26.40;99.90;;;;;;4878410;29;20044;-86
2021/06/28 09:58:07;;;;;;;3.00;2.70;;;26.40;99.90;;;;;;4878966;29;20033;-86
2021/06/28 10:00:35;;;;;;;3.33;2.60;;;26.40;99.90;;;;;;4878103;29;20091;-86
2021/06/28 10:03:02;;;;;;;2.33;2.13;;;26.50;99.90;;;;;;4880008;29;20060;-86
2021/06/28 10:06:04;;;;;;;2.83;2.60;;;26.50;99.90;;;;;;4863202;29;20041;-86
2021/06/28 10:08:19;;;;;;;3.10;2.70;;;26.40;99.90;;;;;;4875573;29;20045;-86
2021/06/28 10:10:45;;;;;;;2.60;2.40;;;26.50;99.90;;;;;;4862986;29;20044;-86
2021/06/28 10:13:11;;;;;;;2.70;2.50;;;26.50;99.90;;;;;;4878349;29;20109;-86
2021/06/28 10:15:42;;;;;;;2.35;2.15;;;26.50;99.90;;;;;;4862698;29;20033;-86
2021/06/28 10:18:09;;;;;;;2.40;2.20;;;26.50;99.90;;;;;;4878046;29;20503;-86
2021/06/28 10:20:39;;;;;;;2.58;2.38;;;26.50;99.90;;;;;;4879309;29;20048;-86
2021/06/28 10:23:06;;;;;;;2.47;2.28;;;26.50;99.90;;;;;;4877863;29;20029;-86
2021/06/28 10:25:33;;;;;;;2.60;2.33;;;26.50;99.90;;;;;;4879560;29;20116;-86
2021/06/28 10:28:00;;;;;;;2.15;1.95;;;26.50;99.90;;;;;;4862923;29;20034;-85
2021/06/28 10:30:28;;;;;;;2.25;2.05;;;26.50;99.90;;;;;;4877806;29;20357;-86
2021/06/28 10:33:09;;;;;;;2.55;2.30;;;26.50;99.90;;;;;;4879381;29;20061;-86
2021/06/28 10:35:39;;;;;;;2.25;2.03;;;26.50;99.90;;;;;;4878191;29;20040;-86
2021/06/28 10:38:09;;;;;;;2.05;1.92;;;26.50;99.90;;;;;;4878015;29;20104;-86
2021/06/28 10:40:54;;;;;;;2.22;2.03;;;26.40;99.90;;;;;;4879469;29;20041;-86
2021/06/28 10:43:27;;;;;;;2.58;2.38;;;26.40;99.90;;;;;;4877696;29;20493;-87
2021/06/28 10:45:53;;;;;;;2.08;1.92;;;26.40;99.90;;;;;;4878054;29;20040;-87
2021/06/28 10:48:21;;;;;;;2.08;1.90;;;26.40;99.90;;;;;;4878448;29;20053;-86
2021/06/28 10:51:05;;;;;;;2.60;2.22;;;26.50;99.90;;;;;;4879357;29;20044;-86
2021/06/28 10:53:34;;;;;;;2.20;2.00;;;26.40;99.90;;;;;;4878623;29;20029;-86
2021/06/28 10:58:54;;;;;;;2.10;1.90;;;26.40;99.90;;;;;;4879199;29;20040;-86
2021/06/28 11:01:34;;;;;;;2.20;1.85;;;26.40;99.90;;;;;;4878732;29;20131;-86
2021/06/28 11:04:24;;;;;;;1.77;1.67;;;26.40;99.90;;;;;;4879052;29;20029;-86
2021/06/28 11:06:59;;;;;;;2.03;1.83;;;26.40;99.90;;;;;;4879326;29;20472;-85
2021/06/28 11:09:34;;;;;;;2.13;1.92;;;26.40;99.90;;;;;;4877720;29;20077;-86
2021/06/28 11:12:01;;;;;;;1.95;1.80;;;26.40;99.90;;;;;;4878802;29;20033;-86
2021/06/28 11:14:26;;;;;;;2.20;2.00;;;26.40;99.90;;;;;;4881217;29;20033;-86
2021/06/28 11:17:11;;;;;;;1.92;1.75;;;26.40;99.90;;;;;;4881581;29;20156;-85
2021/06/28 11:19:46;;;;;;;2.15;1.95;;;26.40;99.90;;;;;;4882759;29;20125;-86
2021/06/28 11:22:33;;;;;;;1.90;1.80;;;26.40;99.90;;;;;;4881029;29;20112;-88
2021/06/28 11:25:08;;;;;;;2.22;2.03;;;26.40;99.90;;;;;;4882713;29;20036;-86
2021/06/28 11:27:35;;;;;;;1.80;1.70;;;26.40;99.90;;;;;;4880901;29;20029;-86
2021/06/28 11:30:02;;;;;;;2.15;1.95;;;26.40;99.90;;;;;;4881052;29;20041;-86
2021/06/28 11:32:30;;;;;;;1.60;1.50;;;26.40;99.90;;;;;;4865739;29;20041;-87
2021/06/28 11:34:57;;;;;;;1.90;1.70;;;26.40;99.90;;;;;;4882214;29;20483;-85
2021/06/28 11:37:23;;;;;;;2.10;1.90;;;26.40;99.90;;;;;;4865185;29;20035;-87
2021/06/28 11:39:52;;;;;;;1.98;1.88;;;26.40;99.90;;;;;;4881318;29;20102;-87
2021/06/28 11:42:38;;;;;;;1.88;1.77;;;26.40;99.90;;;;;;4880607;29;20029;-86
2021/06/28 11:45:10;;;;;;;2.17;1.70;;;26.40;99.90;;;;;;4880894;29;20040;-87
2021/06/28 11:47:45;;;;;;;1.80;1.70;;;26.40;99.90;;;;;;4881807;29;20510;-87
2021/06/28 11:50:34;;;;;;;1.70;1.60;;;26.40;99.90;;;;;;4884735;29;20037;-87
2021/06/28 11:53:01;;;;;;;1.88;1.77;;;26.40;99.90;;;;;;4889663;29;20128;-86
2021/06/28 11:55:29;;;;;;;1.73;1.63;;;26.40;99.90;;;;;;4881174;29;20475;-86
2021/06/28 11:57:56;;;;;;;2.10;1.90;;;26.40;99.90;;;;;;4880769;29;20084;-86
2021/06/28 12:00:23;;;;;;;2.00;1.80;;;26.40;99.90;;;;;;4880044;29;20475;-86
2021/06/28 12:03:16;;;;;;;2.13;1.95;;;26.40;99.90;;;;;;4881774;29;20476;-86
2021/06/28 12:05:46;;;;;;;2.13;1.73;;;26.40;99.90;;;;;;4880730;29;20032;-86
2021/06/28 12:08:13;;;;;;;1.67;1.58;;;26.40;99.90;;;;;;4880481;29;20052;-86
2021/06/28 12:10:53;;;;;;;1.58;1.48;;;26.30;99.90;;;;;;4880480;29;20033;-86
2021/06/28 12:13:29;;;;;;;1.73;1.63;;;26.40;99.90;;;;;;4866383;29;20033;-86
2021/06/28 12:15:55;;;;;;;2.00;1.80;;;26.40;99.90;;;;;;4880559;29;20110;-86
2021/06/28 12:18:21;;;;;;;1.90;1.80;;;26.40;99.90;;;;;;4881085;29;20475;-87
2021/06/28 12:20:58;;;;;;;1.77;1.67;;;26.40;99.90;;;;;;4864543;29;20096;-86
2021/06/28 12:23:24;;;;;;;1.70;1.60;;;26.40;99.90;;;;;;4879114;29;20044;-86
2021/06/28 12:25:50;;;;;;;1.60;1.50;;;26.40;99.90;;;;;;4864618;29;20032;-86
2021/06/28 12:28:26;;;;;;;1.67;1.58;;;26.40;99.90;;;;;;4880208;29;20117;-88
2021/06/28 12:30:53;;;;;;;1.55;1.45;;;26.40;99.90;;;;;;4864639;29;20064;-86
2021/06/28 12:33:19;;;;;;;1.52;1.42;;;26.40;99.90;;;;;;4864318;29;20117;-86
2021/06/28 12:35:45;;;;;;;1.55;1.45;;;26.40;99.90;;;;;;4863991;29;20551;-86
2021/06/28 12:38:14;;;;;;;1.90;1.70;;;26.40;99.90;;;;;;4864672;29;20132;-86
2021/06/28 12:40:42;;;;;;;2.00;1.80;;;26.40;99.90;;;;;;4864550;29;20049;-86
2021/06/28 12:43:12;;;;;;;1.60;1.50;;;26.40;99.90;;;;;;4865112;29;20093;-86
2021/06/28 12:45:40;;;;;;;1.77;1.67;;;26.40;99.90;;;;;;4864193;29;20093;-86
2021/06/28 12:48:08;;;;;;;1.50;1.40;;;26.40;99.90;;;;;;4880793;29;20053;-87